createdAt,value
2018-07-08T00:01:54.555Z,18.70
2018-07-08T00:04:24.000Z,18.70
2018-07-08T00:06:57.649Z,18.60
2018-07-08T00:09:27.023Z,18.60
2018-07-08T00:11:56.291Z,18.50
2018-07-08T00:14:25.853Z,18.50
2018-07-08T00:16:55.055Z,18.50
2018-07-08T00:19:24.315Z,18.50
2018-07-08T00:21:54.151Z,18.50
2018-07-08T00:24:23.452Z,18.40
2018-07-08T00:26:52.861Z,18.40
2018-07-08T00:29:22.192Z,18.30
2018-07-08T00:31:51.488Z,18.30
2018-07-08T00:34:21.131Z,18.30
2018-07-08T00:36:50.334Z,18.20
2018-07-08T00:39:19.582Z,18.20
2018-07-08T00:41:49.584Z,18.10
2018-07-08T00:44:18.889Z,18.10
2018-07-08T00:46:48.921Z,18.10
2018-07-08T00:49:18.286Z,18.00
2018-07-08T00:51:47.714Z,18.00
2018-07-08T00:54:16.949Z,18.00
2018-07-08T00:56:46.178Z,18.00
2018-07-08T00:59:15.456Z,17.90
2018-07-08T01:01:45.083Z,17.80
2018-07-08T01:04:14.128Z,17.80
2018-07-08T01:06:43.258Z,17.80
2018-07-08T01:09:12.299Z,17.80
2018-07-08T01:11:41.364Z,17.60
2018-07-08T01:14:11.334Z,17.70
2018-07-08T01:16:40.589Z,17.60
2018-07-08T01:19:09.874Z,17.60
2018-07-08T01:21:39.199Z,17.60
2018-07-08T01:24:08.434Z,17.50
2018-07-08T01:26:38.390Z,17.50
2018-07-08T01:29:07.645Z,17.40
2018-07-08T01:31:36.728Z,17.40
2018-07-08T01:34:06.121Z,17.40
2018-07-08T01:36:35.424Z,17.40
2018-07-08T01:39:05.679Z,17.30
2018-07-08T01:41:35.057Z,17.30
2018-07-08T01:44:05.238Z,17.30
2018-07-08T01:46:34.623Z,17.30
2018-07-08T01:49:03.849Z,17.20
2018-07-08T01:51:33.163Z,17.20
2018-07-08T01:54:02.371Z,17.10
2018-07-08T01:56:31.550Z,17.20
2018-07-08T01:59:00.813Z,17.10
2018-07-08T02:01:29.988Z,17.10
2018-07-08T02:03:59.173Z,17.10
2018-07-08T02:06:28.536Z,17.00
2018-07-08T02:08:58.437Z,17.00
2018-07-08T02:11:27.829Z,17.00
2018-07-08T02:13:57.188Z,16.90
2018-07-08T02:16:26.318Z,16.90
2018-07-08T02:18:55.439Z,16.90
2018-07-08T02:21:24.603Z,16.90
2018-07-08T02:23:53.865Z,16.80
2018-07-08T02:26:23.278Z,16.80
2018-07-08T02:31:21.766Z,16.70
2018-07-08T02:33:51.105Z,16.70
2018-07-08T02:36:20.471Z,16.70
2018-07-08T02:38:49.648Z,16.60
2018-07-08T02:41:18.875Z,16.70
2018-07-08T02:43:48.549Z,16.60
2018-07-08T02:46:19.231Z,16.60
2018-07-08T02:48:48.406Z,16.50
2018-07-08T02:51:17.671Z,16.50
2018-07-08T02:53:47.001Z,16.50
2018-07-08T02:56:16.249Z,16.40
2018-07-08T02:58:45.594Z,16.40
2018-07-08T03:01:14.838Z,16.30
2018-07-08T03:03:43.935Z,16.30
2018-07-08T03:06:13.199Z,16.20
2018-07-08T03:08:42.325Z,16.20
2018-07-08T03:11:11.312Z,16.10
2018-07-08T03:13:40.522Z,16.10
2018-07-08T03:16:09.619Z,16.10
2018-07-08T03:18:38.655Z,16.00
2018-07-08T03:21:08.682Z,16.00
2018-07-08T03:23:37.751Z,15.90
2018-07-08T03:26:07.017Z,15.90
2018-07-08T03:28:36.107Z,15.80
2018-07-08T03:31:05.366Z,15.80
2018-07-08T03:33:34.766Z,15.80
2018-07-08T03:36:03.818Z,15.80
2018-07-08T03:38:33.459Z,15.70
2018-07-08T03:41:03.013Z,15.70
2018-07-08T03:43:32.316Z,15.70
2018-07-08T03:46:01.567Z,15.70
2018-07-08T03:48:30.904Z,15.60
2018-07-08T03:51:00.227Z,15.60
2018-07-08T03:53:29.518Z,15.60
2018-07-08T03:55:58.863Z,15.60
2018-07-08T03:58:28.371Z,15.50
2018-07-08T04:00:57.866Z,15.50
2018-07-08T04:03:28.117Z,15.50
2018-07-08T04:05:57.505Z,15.50
2018-07-08T04:08:26.704Z,15.50
2018-07-08T04:10:56.980Z,15.40
2018-07-08T04:13:26.081Z,15.40
2018-07-08T04:15:55.373Z,15.50
2018-07-08T04:18:24.399Z,15.50
2018-07-08T04:20:53.611Z,15.40
2018-07-08T04:23:23.497Z,15.50
2018-07-08T04:25:53.006Z,15.40
2018-07-08T04:28:22.132Z,15.40
2018-07-08T04:33:20.185Z,15.40
2018-07-08T04:35:49.343Z,15.40
2018-07-08T04:38:19.121Z,15.40
2018-07-08T04:40:49.174Z,15.50
2018-07-08T04:43:18.307Z,15.40
2018-07-08T04:45:47.685Z,15.50
2018-07-08T04:48:17.935Z,15.50
2018-07-08T04:50:53.532Z,15.50
2018-07-08T04:53:22.810Z,15.60
2018-07-08T04:55:51.786Z,15.60
2018-07-08T04:58:21.158Z,15.60
2018-07-08T05:00:50.399Z,15.70
2018-07-08T05:03:19.488Z,15.70
2018-07-08T05:05:48.593Z,15.70
2018-07-08T05:08:17.726Z,15.70
2018-07-08T05:10:46.742Z,15.70
2018-07-08T05:13:15.766Z,15.80
2018-07-08T05:15:44.962Z,15.80
2018-07-08T05:18:14.068Z,15.80
2018-07-08T05:20:43.225Z,15.80
2018-07-08T05:23:12.465Z,15.80
2018-07-08T05:25:43.205Z,15.80
2018-07-08T05:28:13.007Z,15.80
2018-07-08T05:30:42.214Z,15.80
2018-07-08T05:33:11.469Z,15.80
2018-07-08T05:35:40.597Z,15.90
2018-07-08T05:38:09.640Z,15.90
2018-07-08T05:40:39.128Z,15.90
2018-07-08T05:43:08.685Z,15.90
2018-07-08T05:45:38.048Z,15.80
2018-07-08T05:48:07.746Z,15.90
2018-07-08T05:50:37.937Z,15.80
2018-07-08T05:53:07.286Z,15.80
2018-07-08T05:55:37.632Z,15.80
2018-07-08T05:58:07.467Z,15.80
2018-07-08T06:00:37.038Z,15.80
2018-07-08T06:03:06.800Z,15.80
2018-07-08T06:05:36.201Z,15.90
2018-07-08T06:08:05.810Z,15.90
2018-07-08T06:10:35.630Z,15.90
2018-07-08T06:13:05.019Z,16.00
2018-07-08T06:15:34.372Z,16.00
2018-07-08T06:18:06.178Z,16.00
2018-07-08T06:20:35.727Z,16.00
2018-07-08T06:23:05.161Z,16.00
2018-07-08T06:25:34.768Z,16.00
2018-07-08T06:28:04.124Z,16.00
2018-07-08T06:30:33.621Z,16.10
2018-07-08T06:33:02.668Z,16.10
2018-07-08T06:35:32.097Z,16.20
2018-07-08T06:38:01.463Z,16.20
2018-07-08T06:40:30.778Z,16.20
2018-07-08T06:45:31.652Z,16.10
2018-07-08T06:48:01.545Z,16.20
2018-07-08T06:50:32.054Z,16.10
2018-07-08T06:53:02.007Z,16.10
2018-07-08T06:55:32.002Z,16.20
2018-07-08T06:58:01.584Z,16.20
2018-07-08T07:00:31.101Z,16.20
2018-07-08T07:03:00.252Z,16.30
2018-07-08T07:05:30.159Z,16.30
2018-07-08T07:08:00.175Z,16.40
2018-07-08T07:10:29.613Z,16.50
2018-07-08T07:13:00.621Z,16.50
2018-07-08T07:15:30.421Z,16.50
2018-07-08T07:17:59.583Z,16.50
2018-07-08T07:20:28.750Z,16.60
2018-07-08T07:23:02.265Z,16.60
2018-07-08T07:25:31.791Z,16.70
2018-07-08T07:28:01.880Z,16.70
2018-07-08T07:30:31.221Z,16.80
2018-07-08T07:33:00.564Z,16.90
2018-07-08T07:35:33.310Z,16.90
2018-07-08T07:38:02.828Z,16.90
2018-07-08T07:40:32.606Z,17.00
2018-07-08T07:43:02.683Z,17.00
2018-07-08T07:45:33.946Z,17.00
2018-07-08T07:48:03.809Z,17.10
2018-07-08T07:50:34.607Z,17.20
2018-07-08T07:55:35.481Z,17.40
2018-07-08T07:58:06.954Z,17.40
2018-07-08T08:00:36.732Z,17.40
2018-07-08T08:03:06.835Z,17.50
2018-07-08T08:05:36.513Z,17.50
2018-07-08T08:08:06.698Z,17.50
2018-07-08T08:10:36.039Z,17.60
2018-07-08T08:13:06.066Z,17.60
2018-07-08T08:15:36.129Z,17.70
2018-07-08T08:18:05.634Z,17.70
2018-07-08T08:20:35.919Z,17.70
2018-07-08T08:23:06.334Z,17.80
2018-07-08T08:25:35.684Z,17.90
2018-07-08T08:28:05.704Z,18.00
2018-07-08T08:30:35.078Z,18.10
2018-07-08T08:33:05.340Z,18.10
2018-07-08T08:35:35.013Z,18.20
2018-07-08T08:38:04.289Z,18.30
2018-07-08T08:40:33.654Z,18.40
2018-07-08T08:43:03.751Z,18.50
2018-07-08T08:45:35.480Z,18.50
2018-07-08T08:48:05.655Z,18.60
2018-07-08T08:50:37.573Z,18.70
2018-07-08T08:53:08.762Z,18.60
2018-07-08T08:55:37.839Z,18.50
2018-07-08T08:58:07.005Z,18.60
2018-07-08T09:00:35.967Z,18.60
2018-07-08T09:03:04.983Z,18.70
2018-07-08T09:05:34.111Z,18.80
2018-07-08T09:08:03.099Z,18.80
2018-07-08T09:10:32.906Z,18.90
2018-07-08T09:13:01.834Z,18.90
2018-07-08T09:15:30.802Z,18.90
2018-07-08T09:17:59.788Z,19.00
2018-07-08T09:20:28.801Z,19.10
2018-07-08T09:22:58.007Z,19.10
2018-07-08T09:25:27.013Z,19.20
2018-07-08T09:27:56.035Z,19.20
2018-07-08T09:30:24.966Z,19.30
2018-07-08T09:32:53.948Z,19.30
2018-07-08T09:35:22.921Z,19.30
2018-07-08T09:37:51.985Z,19.50
2018-07-08T09:40:21.023Z,19.50
2018-07-08T09:42:50.123Z,19.70
2018-07-08T09:45:19.067Z,19.90
2018-07-08T09:47:48.813Z,20.00
2018-07-08T09:50:17.960Z,20.20
2018-07-08T09:52:46.979Z,20.30
2018-07-08T09:55:16.842Z,20.70
2018-07-08T09:57:45.917Z,20.90
2018-07-08T10:00:14.977Z,21.10
2018-07-08T10:02:44.164Z,21.20
2018-07-08T10:05:13.405Z,21.40
2018-07-08T10:07:43.441Z,21.40
2018-07-08T10:10:12.392Z,21.30
2018-07-08T10:12:41.469Z,21.40
2018-07-08T10:15:10.403Z,21.80
2018-07-08T10:17:39.404Z,21.80
2018-07-08T10:20:08.710Z,22.30
2018-07-08T10:22:37.661Z,22.60
2018-07-08T10:25:06.644Z,22.60
2018-07-08T10:28:18.117Z,22.60
2018-07-08T10:30:47.516Z,22.60
2018-07-08T10:33:16.534Z,23.10
2018-07-08T10:36:01.313Z,23.30
2018-07-08T10:38:31.376Z,23.50
2018-07-08T10:41:00.453Z,23.80
2018-07-08T10:43:29.473Z,23.90
2018-07-08T10:45:58.682Z,23.80
2018-07-08T10:48:27.809Z,24.00
2018-07-08T10:50:56.853Z,24.40
2018-07-08T10:53:25.901Z,24.90
2018-07-08T10:55:54.867Z,25.20
2018-07-08T10:58:23.817Z,25.30
2018-07-08T11:00:52.840Z,25.30
2018-07-08T11:03:21.979Z,25.50
2018-07-08T11:05:50.935Z,25.20
2018-07-08T11:08:19.935Z,25.10
2018-07-08T11:10:48.937Z,25.40
2018-07-08T11:13:17.973Z,25.70
2018-07-08T11:15:47.043Z,25.50
2018-07-08T11:18:16.005Z,25.90
2018-07-08T11:20:45.212Z,26.30
2018-07-08T11:23:14.245Z,26.40
2018-07-08T11:25:43.232Z,26.40
2018-07-08T11:28:12.260Z,26.90
2018-07-08T11:30:41.345Z,27.20
2018-07-08T11:33:10.788Z,27.10
2018-07-08T11:35:39.856Z,27.50
2018-07-08T11:38:09.068Z,27.80
2018-07-08T11:40:38.039Z,27.80
2018-07-08T11:43:07.036Z,27.90
2018-07-08T11:45:36.313Z,27.60
2018-07-08T11:48:05.579Z,28.00
2018-07-08T11:50:34.593Z,27.90
2018-07-08T11:53:03.607Z,27.80
2018-07-08T11:55:32.571Z,28.00
2018-07-08T11:58:01.577Z,28.40
2018-07-08T12:00:30.583Z,28.30
2018-07-08T12:03:01.241Z,27.90
2018-07-08T12:05:30.339Z,28.50
2018-07-08T12:07:59.381Z,29.20
2018-07-08T12:10:31.051Z,30.00
2018-07-08T12:13:01.880Z,30.80
2018-07-08T12:15:31.045Z,30.60
2018-07-08T12:18:00.219Z,30.20
2018-07-08T12:20:30.274Z,30.20
2018-07-08T12:22:59.428Z,30.40
2018-07-08T12:25:28.834Z,30.90
2018-07-08T12:27:58.175Z,30.60
2018-07-08T12:30:27.316Z,30.00
2018-07-08T12:32:57.329Z,30.00
2018-07-08T12:35:26.530Z,31.10
2018-07-08T12:37:55.591Z,31.40
2018-07-08T12:40:24.793Z,31.40
2018-07-08T12:42:53.881Z,31.60
2018-07-08T12:45:23.196Z,32.10
2018-07-08T12:47:52.557Z,32.60
2018-07-08T12:50:24.880Z,33.00
2018-07-08T12:52:54.329Z,33.50
2018-07-08T12:55:28.911Z,33.20
2018-07-08T12:58:00.818Z,33.00
2018-07-08T13:00:30.279Z,33.00
2018-07-08T13:03:02.552Z,32.80
2018-07-08T13:05:34.328Z,32.60
2018-07-08T13:08:03.517Z,31.50
2018-07-08T13:10:32.669Z,31.40
2018-07-08T13:13:07.652Z,31.20
2018-07-08T13:15:45.314Z,31.50
2018-07-08T13:18:14.428Z,31.90
2018-07-08T13:20:49.355Z,32.50
2018-07-08T13:23:18.680Z,32.70
2018-07-08T13:26:01.108Z,32.40
2018-07-08T13:28:30.113Z,32.70
2018-07-08T13:31:16.333Z,32.50
2018-07-08T13:33:46.268Z,32.80
2018-07-08T13:38:53.128Z,33.10
2018-07-08T13:41:22.399Z,33.70
2018-07-08T13:43:51.547Z,33.70
2018-07-08T13:46:24.221Z,33.80
2018-07-08T13:48:53.449Z,34.20
2018-07-08T13:51:23.724Z,34.20
2018-07-08T13:53:52.987Z,33.90
2018-07-08T13:56:22.450Z,33.30
2018-07-08T13:59:01.802Z,33.40
2018-07-08T14:01:31.191Z,33.50
2018-07-08T14:04:06.696Z,33.20
2018-07-08T14:06:44.127Z,32.70
2018-07-08T14:09:13.581Z,33.10
2018-07-08T14:11:42.739Z,33.20
2018-07-08T14:14:11.962Z,33.40
2018-07-08T14:16:51.132Z,34.00
2018-07-08T14:19:37.194Z,33.90
2018-07-08T14:22:19.082Z,34.90
2018-07-08T14:24:48.450Z,35.80
2018-07-08T14:27:17.614Z,35.10
2018-07-08T14:29:46.737Z,35.80
2018-07-08T14:32:15.815Z,35.50
2018-07-08T14:34:44.962Z,34.90
2018-07-08T14:37:18.331Z,35.10
2018-07-08T14:39:47.448Z,34.60
2018-07-08T14:42:16.560Z,33.70
2018-07-08T14:45:06.843Z,33.60
2018-07-08T14:47:36.108Z,33.40
2018-07-08T14:50:05.465Z,33.30
2018-07-08T14:52:34.567Z,33.50
2018-07-08T14:55:15.734Z,35.30
2018-07-08T14:57:44.908Z,36.20
2018-07-08T15:00:14.006Z,36.30
2018-07-08T15:02:43.128Z,35.40
2018-07-08T15:05:12.291Z,35.40
2018-07-08T15:07:41.445Z,34.90
2018-07-08T15:10:14.551Z,35.60
2018-07-08T15:12:51.276Z,36.30
2018-07-08T15:15:20.462Z,36.00
2018-07-08T15:17:49.676Z,34.60
2018-07-08T15:20:18.969Z,34.90
2018-07-08T15:22:49.167Z,35.10
2018-07-08T15:25:18.788Z,35.00
2018-07-08T15:27:54.107Z,35.00
2018-07-08T15:30:24.344Z,34.60
2018-07-08T15:32:59.081Z,33.90
2018-07-08T15:35:29.983Z,34.20
2018-07-08T15:38:00.098Z,35.00
2018-07-08T15:40:41.599Z,35.30
2018-07-08T15:43:24.142Z,35.70
2018-07-08T15:45:54.328Z,34.90
2018-07-08T15:48:24.298Z,34.10
2018-07-08T15:51:05.938Z,33.70
2018-07-08T15:53:41.173Z,33.60
2018-07-08T15:56:10.564Z,33.70
2018-07-08T15:58:43.817Z,34.20
2018-07-08T16:01:13.883Z,34.20
2018-07-08T16:06:34.818Z,35.30
2018-07-08T16:09:09.876Z,35.80
2018-07-08T16:11:47.821Z,36.60
2018-07-08T16:14:17.413Z,36.70
2018-07-08T16:16:48.015Z,36.20
2018-07-08T16:19:23.130Z,35.60
2018-07-08T16:21:53.249Z,35.00
2018-07-08T16:24:22.360Z,34.60
2018-07-08T16:26:53.371Z,35.10
2018-07-08T16:29:30.549Z,35.80
2018-07-08T16:32:00.873Z,35.20
2018-07-08T16:34:32.416Z,35.10
2018-07-08T16:37:01.656Z,34.60
2018-07-08T16:39:30.836Z,34.60
2018-07-08T16:42:00.302Z,34.60
2018-07-08T16:44:29.615Z,34.60
2018-07-08T16:46:58.936Z,33.90
2018-07-08T16:49:28.060Z,32.50
2018-07-08T16:51:57.990Z,30.70
2018-07-08T16:54:27.192Z,29.60
2018-07-08T16:57:00.041Z,29.20
2018-07-08T16:59:31.418Z,28.40
2018-07-08T17:02:01.127Z,27.90
2018-07-08T17:04:30.425Z,27.50
2018-07-08T17:06:59.516Z,27.10
2018-07-08T17:09:34.147Z,27.10
2018-07-08T17:12:04.210Z,27.10
2018-07-08T17:14:33.673Z,27.00
2018-07-08T17:17:03.027Z,27.00
2018-07-08T17:19:32.469Z,26.70
2018-07-08T17:22:01.959Z,26.70
2018-07-08T17:24:35.734Z,26.60
2018-07-08T17:27:06.370Z,26.50
2018-07-08T17:29:35.655Z,26.40
2018-07-08T17:32:04.816Z,26.40
2018-07-08T17:34:33.911Z,26.30
2018-07-08T17:37:03.110Z,26.30
2018-07-08T17:39:32.338Z,26.10
2018-07-08T17:42:01.514Z,26.20
2018-07-08T17:44:30.770Z,26.10
2018-07-08T17:46:59.965Z,26.00
2018-07-08T17:49:29.142Z,25.90
2018-07-08T17:51:58.341Z,25.80
2018-07-08T17:54:27.555Z,25.70
2018-07-08T17:56:56.722Z,25.70
2018-07-08T17:59:25.983Z,25.80
2018-07-08T18:01:55.409Z,26.00
2018-07-08T18:04:24.585Z,26.00
2018-07-08T18:06:55.578Z,25.90
2018-07-08T18:09:24.744Z,25.80
2018-07-08T18:11:53.999Z,25.70
2018-07-08T18:14:24.115Z,25.50
2018-07-08T18:16:53.358Z,25.50
2018-07-08T18:19:22.655Z,25.30
2018-07-08T18:21:54.703Z,25.20
2018-07-08T18:24:31.784Z,25.20
2018-07-08T18:27:03.037Z,25.10
2018-07-08T18:29:32.356Z,25.00
2018-07-08T18:32:01.586Z,24.90
2018-07-08T18:34:30.731Z,24.90
2018-07-08T18:37:00.068Z,24.90
2018-07-08T18:39:29.449Z,24.90
2018-07-08T18:41:58.713Z,24.90
2018-07-08T18:44:28.151Z,24.80
2018-07-08T18:46:57.771Z,24.80
2018-07-08T18:49:26.818Z,24.80
2018-07-08T18:51:55.918Z,24.70
2018-07-08T18:54:25.135Z,24.70
2018-07-08T18:56:54.211Z,24.70
2018-07-08T18:59:23.415Z,24.70
2018-07-08T19:01:52.575Z,24.70
2018-07-08T19:04:21.730Z,24.70
2018-07-08T19:06:50.799Z,24.60
2018-07-08T19:09:19.935Z,24.60
2018-07-08T19:11:49.007Z,24.60
2018-07-08T19:14:27.975Z,24.50
2018-07-08T19:17:10.288Z,24.50
2018-07-08T19:19:39.454Z,24.50
2018-07-08T19:22:08.627Z,24.40
2018-07-08T19:24:38.239Z,24.30
2018-07-08T19:27:07.392Z,24.30
2018-07-08T19:29:36.518Z,24.20
2018-07-08T19:32:05.903Z,24.20
2018-07-08T19:34:35.187Z,24.20
2018-07-08T19:37:04.336Z,24.10
2018-07-08T19:39:33.571Z,24.00
2018-07-08T19:42:03.748Z,24.00
2018-07-08T19:44:33.286Z,23.90
2018-07-08T19:47:02.462Z,23.80
2018-07-08T19:49:31.659Z,23.80
2018-07-08T19:52:00.907Z,23.70
2018-07-08T19:54:30.211Z,23.60
2018-07-08T19:56:59.325Z,23.50
2018-07-08T19:59:28.558Z,23.50
2018-07-08T20:02:03.999Z,23.40
2018-07-08T20:04:33.117Z,23.40
2018-07-08T20:07:02.148Z,23.30
2018-07-08T20:09:33.200Z,23.30
2018-07-08T20:12:02.441Z,23.20
2018-07-08T20:14:31.600Z,23.20
2018-07-08T20:17:00.810Z,23.10
2018-07-08T20:19:30.129Z,23.00
2018-07-08T20:21:59.294Z,23.00
2018-07-08T20:24:28.543Z,22.90
2018-07-08T20:26:58.782Z,22.90
2018-07-08T20:29:28.121Z,22.80
2018-07-08T20:31:57.220Z,22.80
2018-07-08T20:34:27.735Z,22.70
2018-07-08T20:36:56.828Z,22.70
2018-07-08T20:39:25.866Z,22.70
2018-07-08T20:41:55.195Z,22.60
2018-07-08T20:44:24.409Z,22.50
2018-07-08T20:46:53.670Z,22.50
2018-07-08T20:49:22.957Z,22.50
2018-07-08T20:51:52.213Z,22.50
2018-07-08T20:54:21.509Z,22.40
2018-07-08T20:56:50.751Z,22.40
2018-07-08T20:59:20.005Z,22.30
2018-07-08T21:01:49.124Z,22.30
2018-07-08T21:04:18.331Z,22.30
2018-07-08T21:06:47.414Z,22.30
2018-07-08T21:09:16.584Z,22.20
2018-07-08T21:11:45.665Z,22.20
2018-07-08T21:14:14.873Z,22.00
2018-07-08T21:16:44.015Z,22.00
2018-07-08T21:19:13.189Z,21.90
2018-07-08T21:21:42.358Z,21.80
2018-07-08T21:24:11.529Z,21.70
2018-07-08T21:26:40.784Z,21.70
2018-07-08T21:29:09.875Z,21.60
2018-07-08T21:31:39.118Z,21.60
2018-07-08T21:34:08.334Z,21.50
2018-07-08T21:36:37.498Z,21.50
2018-07-08T21:39:08.555Z,21.40
2018-07-08T21:41:37.998Z,21.40
2018-07-08T21:44:07.189Z,21.30
2018-07-08T21:46:36.320Z,21.30
2018-07-08T21:49:05.666Z,21.20
2018-07-08T21:51:34.821Z,21.20
2018-07-08T21:54:03.974Z,21.10
2018-07-08T21:56:33.131Z,21.10
2018-07-08T21:59:02.337Z,21.10
2018-07-08T22:01:37.036Z,21.00
2018-07-08T22:04:06.294Z,21.00
2018-07-08T22:06:35.504Z,20.90
2018-07-08T22:09:05.255Z,20.90
2018-07-08T22:11:34.398Z,20.90
2018-07-08T22:14:03.484Z,20.90
2018-07-08T22:16:32.694Z,20.80
2018-07-08T22:19:01.895Z,20.80
2018-07-08T22:21:31.095Z,20.80
2018-07-08T22:24:00.202Z,20.70
2018-07-08T22:26:29.372Z,20.70
2018-07-08T22:28:58.564Z,20.60
2018-07-08T22:31:27.774Z,20.60
2018-07-08T22:33:56.838Z,20.50
2018-07-08T22:36:26.012Z,20.50
2018-07-08T22:38:55.255Z,20.40
2018-07-08T22:41:24.413Z,20.50
2018-07-08T22:43:53.559Z,20.50
2018-07-08T22:46:22.789Z,20.50
2018-07-08T22:48:51.934Z,20.50
2018-07-08T22:51:21.013Z,20.40
2018-07-08T22:53:50.210Z,20.40
2018-07-08T22:56:19.534Z,20.40
2018-07-08T22:58:48.609Z,20.40
2018-07-08T23:01:28.525Z,20.40
2018-07-08T23:03:59.004Z,20.30
2018-07-08T23:06:28.190Z,20.20
2018-07-08T23:08:57.488Z,20.10
2018-07-08T23:11:27.288Z,20.00
2018-07-08T23:13:57.120Z,19.90
2018-07-08T23:16:26.927Z,19.90
2018-07-08T23:18:56.083Z,19.80
2018-07-08T23:21:25.191Z,19.80
2018-07-08T23:23:54.478Z,19.80
2018-07-08T23:26:23.610Z,19.70
2018-07-08T23:28:52.772Z,19.60
2018-07-08T23:31:21.884Z,19.60
2018-07-08T23:33:51.006Z,19.50
2018-07-08T23:36:21.149Z,19.50
2018-07-08T23:38:50.286Z,19.50
2018-07-08T23:41:19.429Z,19.40
2018-07-08T23:43:49.158Z,19.40
2018-07-08T23:46:18.234Z,19.40
2018-07-08T23:48:47.420Z,19.40
2018-07-08T23:51:16.547Z,19.30
2018-07-08T23:53:45.738Z,19.20
2018-07-08T23:56:14.835Z,19.20
2018-07-08T23:58:44.633Z,19.10
